Terminal Aerodrome Forecast
Issued by NWS Boston, MA

Current Version | Previous Version | Text Only | Print | Product List | Glossary On
Versions: 1 2 3 4 5 6 7 8 9 10 11 12 13 14 15 16 17 18 19 20 21 22 23 24 25 26 27 28 29 30 31 32 33 34 35 36 37 38 39 40 41 42
000 FTUS41 KBOX 231139 AAB TAFPVD TAF AMD KPVD 231139Z 2312/2412 01012G22KT P6SM OVC008 FM231500 02012G21KT P6SM SCT008 BKN015 FM231800 02011G19KT P6SM SCT015 BKN035 FM232300 03009KT P6SM SCT035 FM240300 VRB03KT P6SM FEW250=

USA.gov is the U.S. government's official web portal to all federal, state and local government web resources and services.